New Scone, United Kingdom
Current Conditions -  °F | °C
As of 5:20 PM on Wednesday 26 Nov 2014 (Local Time) from EGPN Reporting Station
Light Rain Light Rain  
Wind Chill: 43°   Ceiling: 1000
Heat Index: 43°   Visibility: 2.5mi
Dew Point: 43°   Wind: 1mph
Humidity: 100%   Direction: 320°NW
Pressure: 29.88"   Gusts: NA
Location:  56.42°N, 3.41°W
Report Text: EGPN 261720Z 32001KT 4000 -RADZ BKN010 BKN015 06/06 Q1012
Loading
Personal Weather Stations






























Interactive Weather Map New forecast layout! Learn more

10-Day Weather Forecast

Advertisements
Track Severe Weather on mobile